Time;durP1;ratioP1;P1;durP2;ratioP2;P2;SDS_P1;SDS_P2;PMS_P1;PMS_P2;Temp;Humidity;BMP_temperature;BMP_pressure;BME280_temperature;BME280_humidity;BME280_pressure;Samples;Min_cycle;Max_cycle;Signal;HPM_P1;HPM_P2
2022/08/13 00:00:32;;;;;;;7.30;4.43;;;27.00;51.70;;;;;;5026162;28;20056;-71
2022/08/13 00:02:59;;;;;;;8.13;4.80;;;27.00;51.80;;;;;;5027323;28;20060;-71
2022/08/13 00:05:25;;;;;;;8.23;4.45;;;27.00;51.80;;;;;;5026822;28;20486;-71
2022/08/13 00:07:51;;;;;;;10.70;4.63;;;27.00;51.90;;;;;;5027714;28;20022;-71
2022/08/13 00:10:29;;;;;;;8.50;4.60;;;27.00;51.90;;;;;;5027459;28;20036;-71
2022/08/13 00:12:59;;;;;;;6.90;4.60;;;27.00;51.90;;;;;;5021723;28;20790;-71
2022/08/13 00:15:36;;;;;;;7.20;4.75;;;27.00;51.90;;;;;;5024382;28;20030;-71
2022/08/13 00:18:04;;;;;;;7.90;4.68;;;27.00;52.00;;;;;;5024300;28;20510;-71
2022/08/13 00:20:33;;;;;;;7.15;4.60;;;27.00;52.10;;;;;;5025271;28;20029;-71
2022/08/13 00:22:59;;;;;;;7.93;4.68;;;26.90;51.90;;;;;;5026878;28;20028;-71
2022/08/13 00:25:25;;;;;;;7.28;4.50;;;27.00;52.10;;;;;;5025984;28;20095;-71
2022/08/13 00:27:56;;;;;;;8.75;4.55;;;26.90;52.00;;;;;;5026625;28;20030;-71
2022/08/13 00:30:31;;;;;;;6.90;4.35;;;26.90;52.00;;;;;;5025926;28;20072;-71
2022/08/13 00:32:59;;;;;;;7.93;4.53;;;26.90;52.00;;;;;;5024128;28;20038;-71
2022/08/13 00:35:25;;;;;;;8.40;4.50;;;26.90;52.10;;;;;;5024291;28;20037;-71
2022/08/13 00:37:50;;;;;;;9.00;4.80;;;26.90;52.10;;;;;;5025980;28;20017;-71
2022/08/13 00:40:17;;;;;;;7.22;4.80;;;26.90;52.20;;;;;;5026380;28;20558;-71
2022/08/13 00:42:43;;;;;;;7.30;4.68;;;26.90;52.20;;;;;;5025945;28;20109;-71
2022/08/13 00:45:09;;;;;;;6.65;4.38;;;26.90;52.20;;;;;;5026003;28;20100;-70
2022/08/13 00:50:20;;;;;;;7.00;4.28;;;26.90;52.30;;;;;;5026113;28;20505;-71
2022/08/13 00:52:45;;;;;;;11.55;4.85;;;26.90;52.30;;;;;;5027239;28;20104;-71
2022/08/13 00:55:17;;;;;;;7.28;4.40;;;26.90;52.30;;;;;;5024126;28;20104;-71
2022/08/13 00:57:46;;;;;;;8.13;4.88;;;26.80;52.30;;;;;;5026808;28;20530;-71
2022/08/13 01:00:22;;;;;;;7.75;4.32;;;26.80;52.30;;;;;;5026231;28;20505;-71
2022/08/13 01:02:50;;;;;;;11.10;4.50;;;26.80;52.30;;;;;;5021677;28;20021;-71
2022/08/13 01:05:16;;;;;;;8.15;4.40;;;26.80;52.40;;;;;;5024305;28;20025;-71
2022/08/13 01:07:43;;;;;;;7.63;4.40;;;26.80;52.40;;;;;;5026833;28;20028;-71
2022/08/13 01:10:09;;;;;;;8.30;4.35;;;26.80;52.40;;;;;;5025042;28;20037;-71
2022/08/13 01:12:36;;;;;;;7.43;4.57;;;26.80;52.50;;;;;;5026634;28;20056;-71
2022/08/13 01:15:02;;;;;;;8.05;4.38;;;26.80;52.50;;;;;;5026204;28;20041;-71
2022/08/13 01:17:28;;;;;;;6.93;4.28;;;26.80;52.50;;;;;;5022776;28;20022;-71
2022/08/13 01:19:54;;;;;;;7.25;4.68;;;26.80;52.60;;;;;;5026175;28;20115;-71
2022/08/13 01:22:21;;;;;;;8.80;4.78;;;26.80;52.60;;;;;;5025045;28;20028;-71
2022/08/13 01:24:47;;;;;;;7.57;4.28;;;26.80;52.60;;;;;;5024384;28;20034;-71
2022/08/13 01:27:13;;;;;;;7.63;4.40;;;26.80;52.70;;;;;;5026641;28;20071;-70
2022/08/13 01:29:38;;;;;;;6.78;4.30;;;26.80;52.70;;;;;;5023264;28;20406;-71
2022/08/13 01:32:05;;;;;;;7.00;4.15;;;26.80;52.70;;;;;;5026412;28;20037;-71
2022/08/13 01:34:32;;;;;;;8.20;4.45;;;26.70;52.70;;;;;;5024235;28;20038;-70
2022/08/13 01:36:57;;;;;;;7.00;4.43;;;26.70;52.70;;;;;;5050033;28;20109;-71
2022/08/13 01:39:27;;;;;;;6.82;4.28;;;26.70;52.70;;;;;;5022529;28;20108;-71
2022/08/13 01:41:53;;;;;;;6.95;4.25;;;26.70;52.80;;;;;;5023817;28;20068;-71
2022/08/13 01:44:19;;;;;;;8.02;4.50;;;26.70;52.80;;;;;;5038230;28;20044;-71
2022/08/13 01:52:13;;;;;;;6.97;4.00;;;26.70;52.90;;;;;;5023832;28;20056;-71
2022/08/13 01:54:39;;;;;;;6.95;4.25;;;26.70;52.90;;;;;;5025169;28;20322;-71
2022/08/13 01:57:06;;;;;;;6.82;4.22;;;26.70;52.90;;;;;;5026070;28;20050;-71
2022/08/13 01:59:34;;;;;;;8.07;4.38;;;26.70;52.90;;;;;;5025950;28;20017;-71
2022/08/13 02:02:01;;;;;;;8.18;4.13;;;26.70;52.90;;;;;;5024763;28;20561;-71
2022/08/13 02:04:27;;;;;;;6.72;4.50;;;26.70;52.90;;;;;;5026180;28;20399;-70
2022/08/13 02:06:54;;;;;;;7.63;4.80;;;26.60;52.90;;;;;;5025384;28;20058;-71
2022/08/13 02:09:26;;;;;;;6.40;4.00;;;26.60;52.90;;;;;;5024790;28;20033;-70
2022/08/13 02:11:51;;;;;;;7.15;4.47;;;26.60;53.00;;;;;;5022996;28;20113;-70
2022/08/13 02:14:17;;;;;;;6.63;4.28;;;26.60;52.90;;;;;;5024792;28;20101;-71
2022/08/13 02:16:43;;;;;;;7.90;4.40;;;26.60;53.00;;;;;;5026692;28;20650;-71
2022/08/13 02:19:08;;;;;;;7.13;4.40;;;26.60;53.00;;;;;;5028616;28;20025;-71
2022/08/13 02:21:36;;;;;;;9.55;4.45;;;26.60;53.00;;;;;;5030347;28;20455;-71
2022/08/13 02:24:03;;;;;;;7.25;4.45;;;26.60;53.00;;;;;;5029061;28;20025;-71
2022/08/13 02:26:29;;;;;;;6.22;4.20;;;26.60;53.00;;;;;;5028401;28;20036;-70
2022/08/13 02:28:56;;;;;;;6.63;4.18;;;26.60;53.00;;;;;;5028912;28;20159;-71
2022/08/13 02:31:22;;;;;;;6.07;4.10;;;26.60;53.00;;;;;;5028575;28;20064;-71
2022/08/13 02:33:48;;;;;;;6.75;4.53;;;26.60;53.00;;;;;;5029362;28;20037;-71
2022/08/13 02:36:14;;;;;;;6.70;4.28;;;26.60;53.10;;;;;;5054352;28;20026;-71
2022/08/13 02:38:42;;;;;;;6.32;4.30;;;26.60;53.00;;;;;;5028529;28;20045;-70
2022/08/13 02:43:52;;;;;;;6.32;4.22;;;26.60;53.10;;;;;;5026504;28;20033;-72
2022/08/13 02:46:21;;;;;;;7.85;4.53;;;26.50;53.00;;;;;;5028710;28;20033;-71
2022/08/13 02:48:48;;;;;;;6.65;4.25;;;26.50;53.10;;;;;;5029396;28;20552;-71
2022/08/13 02:51:13;;;;;;;7.10;4.05;;;26.50;53.00;;;;;;5026778;28;20056;-70
2022/08/13 02:53:39;;;;;;;5.88;3.90;;;26.50;53.00;;;;;;5028696;28;20033;-71
2022/08/13 02:56:08;;;;;;;6.15;4.00;;;26.50;53.00;;;;;;5055190;28;20083;-71
2022/08/13 02:58:36;;;;;;;6.65;4.40;;;26.50;52.90;;;;;;5028308;28;20049;-70
2022/08/13 03:01:02;;;;;;;6.13;4.13;;;26.50;53.00;;;;;;5027141;28;20394;-71
2022/08/13 03:03:28;;;;;;;6.82;3.95;;;26.50;53.00;;;;;;5028481;28;20092;-71
2022/08/13 03:05:54;;;;;;;7.20;4.13;;;26.50;53.10;;;;;;5028262;28;20025;-70
2022/08/13 03:08:19;;;;;;;7.30;4.18;;;26.50;53.00;;;;;;5028401;28;20494;-71
2022/08/13 03:10:45;;;;;;;6.93;4.30;;;26.50;52.90;;;;;;5027284;28;20116;-71
2022/08/13 03:13:17;;;;;;;6.18;4.15;;;26.50;53.00;;;;;;5049170;28;20087;-70
2022/08/13 03:15:46;;;;;;;6.45;4.13;;;26.50;53.10;;;;;;5027613;28;20025;-71
2022/08/13 03:18:12;;;;;;;6.82;4.20;;;26.40;52.90;;;;;;5026100;28;20439;-71
2022/08/13 03:20:38;;;;;;;6.07;4.30;;;26.40;53.00;;;;;;5027061;28;20104;-71
2022/08/13 03:23:04;;;;;;;6.50;3.90;;;26.40;52.90;;;;;;5028862;28;20026;-71
2022/08/13 03:25:30;;;;;;;6.63;4.07;;;26.40;53.00;;;;;;5051235;28;20733;-71
2022/08/13 03:27:58;;;;;;;7.10;4.13;;;26.40;53.00;;;;;;5027953;28;20033;-71
2022/08/13 03:30:24;;;;;;;7.20;4.30;;;26.40;54.00;;;;;;5053580;28;20248;-70
2022/08/13 03:32:50;;;;;;;6.95;4.45;;;26.40;53.00;;;;;;5027205;28;20022;-71
2022/08/13 03:35:21;;;;;;;6.40;4.05;;;26.40;53.00;;;;;;5027762;28;20033;-70
2022/08/13 03:37:48;;;;;;;6.25;4.00;;;26.40;53.10;;;;;;5027630;28;20026;-70
2022/08/13 03:40:15;;;;;;;6.93;4.30;;;26.40;53.00;;;;;;5028650;28;20033;-71
2022/08/13 03:42:42;;;;;;;6.32;4.15;;;26.40;53.00;;;;;;5028830;28;20017;-70
2022/08/13 03:45:08;;;;;;;8.05;4.30;;;26.40;53.10;;;;;;5026708;28;20037;-70
2022/08/13 03:47:34;;;;;;;7.47;4.20;;;26.40;53.10;;;;;;5026874;28;20024;-71
2022/08/13 03:50:00;;;;;;;7.60;4.65;;;26.40;53.10;;;;;;5025359;28;20037;-70
2022/08/13 03:52:27;;;;;;;7.47;4.28;;;26.40;53.20;;;;;;5025919;28;20816;-70
2022/08/13 03:54:53;;;;;;;6.68;4.22;;;26.30;53.10;;;;;;5027366;28;20026;-71
2022/08/13 03:57:19;;;;;;;6.88;4.10;;;26.30;53.10;;;;;;5026310;28;20053;-71
2022/08/13 03:59:47;;;;;;;5.85;4.07;;;26.30;53.10;;;;;;5023250;28;20033;-71
2022/08/13 04:02:15;;;;;;;6.70;4.10;;;26.30;53.10;;;;;;5023159;28;20051;-71
2022/08/13 04:04:46;;;;;;;6.55;4.28;;;26.30;53.20;;;;;;5024862;28;20101;-71
2022/08/13 04:07:15;;;;;;;6.78;4.30;;;26.30;53.30;;;;;;5027012;28;20483;-70
2022/08/13 04:09:42;;;;;;;7.43;4.10;;;26.30;53.20;;;;;;5026383;28;20026;-71
2022/08/13 04:12:11;;;;;;;7.38;4.07;;;26.30;53.30;;;;;;5027309;28;20672;-71
2022/08/13 04:14:40;;;;;;;6.15;3.90;;;26.30;53.30;;;;;;5024327;28;20405;-71
2022/08/13 04:17:10;;;;;;;6.00;3.95;;;26.30;53.30;;;;;;5026023;28;20030;-71
2022/08/13 04:19:39;;;;;;;7.20;4.20;;;26.30;53.30;;;;;;5026229;28;20029;-71
2022/08/13 04:22:06;;;;;;;6.88;4.32;;;26.20;53.30;;;;;;5025495;28;20040;-71
2022/08/13 04:24:33;;;;;;;7.13;4.15;;;26.20;53.30;;;;;;5026465;28;20036;-70
2022/08/13 04:26:59;;;;;;;6.40;4.15;;;26.20;53.30;;;;;;5024987;28;20171;-71
2022/08/13 04:29:24;;;;;;;6.47;3.95;;;26.30;53.50;;;;;;5027602;28;20112;-70
2022/08/13 04:31:50;;;;;;;7.13;4.55;;;26.20;53.40;;;;;;5025783;28;20491;-70
2022/08/13 04:34:19;;;;;;;5.97;3.95;;;26.20;53.40;;;;;;5025032;28;20566;-71
2022/08/13 04:36:45;;;;;;;5.90;3.90;;;26.20;53.40;;;;;;5025576;28;20045;-71
2022/08/13 04:39:11;;;;;;;6.63;4.45;;;26.20;53.50;;;;;;5025458;28;20540;-71
2022/08/13 04:41:36;;;;;;;6.80;4.32;;;26.20;53.50;;;;;;5026994;28;20482;-71
2022/08/13 04:44:02;;;;;;;6.55;3.97;;;26.20;53.50;;;;;;5025466;28;20479;-71
2022/08/13 04:46:28;;;;;;;7.20;4.00;;;26.20;53.50;;;;;;5026244;28;20026;-70
2022/08/13 04:48:55;;;;;;;7.20;4.00;;;26.10;53.40;;;;;;5023682;28;21233;-71
2022/08/13 04:51:23;;;;;;;6.20;3.90;;;26.20;53.60;;;;;;5024604;28;20111;-70
2022/08/13 04:53:48;;;;;;;7.13;4.07;;;26.20;53.50;;;;;;5021215;28;20032;-70
2022/08/13 04:56:14;;;;;;;6.05;3.88;;;26.10;53.50;;;;;;5026290;28;20045;-71
2022/08/13 04:58:40;;;;;;;5.72;4.10;;;26.10;53.50;;;;;;5025098;28;20133;-71
2022/08/13 05:01:09;;;;;;;6.68;4.40;;;26.10;53.60;;;;;;5024802;28;20091;-72
2022/08/13 05:03:37;;;;;;;5.95;3.75;;;26.20;53.70;;;;;;5024186;28;20033;-71
2022/08/13 05:06:03;;;;;;;6.78;4.20;;;26.10;53.60;;;;;;5025470;28;20024;-71
2022/08/13 05:08:31;;;;;;;5.85;4.05;;;26.20;53.70;;;;;;5023623;28;20034;-71
2022/08/13 05:10:57;;;;;;;6.82;3.97;;;26.10;53.60;;;;;;5024255;28;20524;-71
2022/08/13 05:13:29;;;;;;;6.03;4.07;;;26.10;53.70;;;;;;5026428;28;20056;-70
2022/08/13 05:15:57;;;;;;;6.20;4.20;;;26.10;53.70;;;;;;5025633;28;20095;-70
2022/08/13 05:18:25;;;;;;;7.28;4.15;;;26.10;53.70;;;;;;5025743;28;20491;-72
2022/08/13 05:20:53;;;;;;;5.90;4.10;;;26.10;53.70;;;;;;5026457;28;20033;-72
2022/08/13 05:23:19;;;;;;;6.30;3.95;;;26.10;53.70;;;;;;5039596;28;20021;-71
2022/08/13 05:25:44;;;;;;;6.22;4.18;;;26.10;53.70;;;;;;5026639;28;20025;-71
2022/08/13 05:28:10;;;;;;;7.10;4.45;;;26.10;53.80;;;;;;5025041;28;20075;-72
2022/08/13 05:30:38;;;;;;;6.75;4.20;;;26.10;53.80;;;;;;5030376;28;20029;-70
2022/08/13 05:33:19;;;;;;;6.10;4.03;;;26.10;53.80;;;;;;5025341;28;20025;-71
2022/08/13 05:35:47;;;;;;;6.38;3.95;;;26.10;53.80;;;;;;5025780;28;20026;-71
2022/08/13 05:38:14;;;;;;;6.57;4.10;;;26.00;53.80;;;;;;5024281;28;20029;-71
2022/08/13 05:40:41;;;;;;;5.88;4.05;;;26.00;53.80;;;;;;5059047;28;20080;-71
2022/08/13 05:43:18;;;;;;;6.68;4.05;;;26.10;53.80;;;;;;5026690;28;20026;-71
2022/08/13 05:45:47;;;;;;;6.50;3.80;;;26.00;53.90;;;;;;5022743;28;20025;-72
2022/08/13 05:48:16;;;;;;;6.22;3.80;;;26.00;53.90;;;;;;5026057;28;20441;-72
2022/08/13 05:50:43;;;;;;;6.65;3.90;;;26.00;53.90;;;;;;5024952;28;20042;-71
2022/08/13 05:53:11;;;;;;;6.75;3.95;;;26.00;53.90;;;;;;5028668;28;20037;-71
2022/08/13 05:55:40;;;;;;;6.22;4.10;;;26.00;54.90;;;;;;5029515;28;20038;-71
2022/08/13 05:58:08;;;;;;;6.35;4.00;;;26.00;53.90;;;;;;5028569;28;20036;-71
2022/08/13 06:03:24;;;;;;;6.82;4.28;;;26.00;53.90;;;;;;5025702;28;20568;-72
2022/08/13 06:06:00;;;;;;;7.03;4.40;;;26.00;53.90;;;;;;5028914;28;20048;-71
2022/08/13 06:08:31;;;;;;;6.80;4.15;;;26.00;53.90;;;;;;5026232;28;20025;-72
2022/08/13 06:10:59;;;;;;;7.28;4.30;;;25.90;53.90;;;;;;5028737;28;20128;-72
2022/08/13 06:13:26;;;;;;;5.45;3.80;;;25.90;53.90;;;;;;5030380;28;20737;-71
2022/08/13 06:15:58;;;;;;;6.00;4.00;;;25.90;54.00;;;;;;5028245;28;20076;-71
2022/08/13 06:18:31;;;;;;;6.03;3.88;;;25.90;54.00;;;;;;5028527;28;20022;-71
2022/08/13 06:20:58;;;;;;;6.97;4.53;;;25.90;53.90;;;;;;5027874;28;20029;-71
2022/08/13 06:23:24;;;;;;;5.53;3.85;;;25.90;54.00;;;;;;5028987;28;20060;-71
2022/08/13 06:25:54;;;;;;;6.35;4.10;;;25.90;54.00;;;;;;5028218;28;20017;-71
2022/08/13 06:28:21;;;;;;;6.53;4.15;;;25.90;54.00;;;;;;5027781;28;20013;-72
2022/08/13 06:30:51;;;;;;;5.40;4.00;;;25.90;54.00;;;;;;5027051;28;20158;-71
2022/08/13 06:33:20;;;;;;;6.22;4.00;;;25.90;54.00;;;;;;5029414;28;20022;-71
2022/08/13 06:35:46;;;;;;;6.20;4.30;;;25.90;54.00;;;;;;5027921;28;20017;-71
2022/08/13 06:38:12;;;;;;;6.53;4.00;;;25.90;54.00;;;;;;5029432;28;20029;-71
2022/08/13 06:40:37;;;;;;;5.47;4.00;;;25.90;54.10;;;;;;5029163;28;20387;-71
2022/08/13 06:43:05;;;;;;;7.00;4.03;;;25.90;54.00;;;;;;5055100;28;20486;-71
2022/08/13 06:45:31;;;;;;;7.65;4.20;;;25.90;54.00;;;;;;5027738;28;20091;-71
2022/08/13 06:47:57;;;;;;;6.65;4.20;;;25.90;54.10;;;;;;5029167;28;20441;-71
2022/08/13 06:50:23;;;;;;;5.40;3.80;;;25.80;54.00;;;;;;5026492;28;20520;-72
2022/08/13 06:52:49;;;;;;;5.32;3.70;;;25.80;54.00;;;;;;5028216;28;20022;-71
2022/08/13 06:55:14;;;;;;;7.72;4.53;;;25.80;54.00;;;;;;5026937;28;22343;-68
2022/08/13 06:57:40;;;;;;;11.98;6.25;;;25.90;54.00;;;;;;5057240;28;20568;-68
2022/08/13 07:00:09;;;;;;;13.52;8.38;;;25.80;53.40;;;;;;5022822;28;20907;-68
2022/08/13 07:02:35;;;;;;;11.35;8.20;;;25.70;52.80;;;;;;5027050;28;20060;-68
2022/08/13 07:05:00;;;;;;;12.85;8.13;;;25.70;52.90;;;;;;5022295;28;20057;-68
2022/08/13 07:07:26;;;;;;;12.82;7.55;;;25.60;52.90;;;;;;5027979;28;20026;-67
2022/08/13 07:09:52;;;;;;;12.88;7.78;;;25.60;53.00;;;;;;5027520;28;20594;-67
2022/08/13 07:12:17;;;;;;;13.32;7.60;;;25.60;53.00;;;;;;5026074;28;20029;-68
2022/08/13 07:14:43;;;;;;;15.23;7.70;;;25.60;53.00;;;;;;5024392;28;20505;-67
2022/08/13 07:17:10;;;;;;;21.35;7.90;;;25.50;52.90;;;;;;5024699;28;20082;-67
2022/08/13 07:19:37;;;;;;;20.65;8.57;;;25.50;53.10;;;;;;5026794;28;20390;-68
2022/08/13 07:22:06;;;;;;;15.73;8.48;;;25.40;53.40;;;;;;5023076;28;20409;-67
2022/08/13 07:24:32;;;;;;;15.48;8.40;;;25.40;53.40;;;;;;5027469;28;20030;-67
2022/08/13 07:27:02;;;;;;;16.40;8.30;;;25.40;53.70;;;;;;5027322;28;20112;-68
2022/08/13 07:29:28;;;;;;;15.38;8.07;;;25.30;54.80;;;;;;5024400;28;20021;-69
2022/08/13 07:31:54;;;;;;;14.23;7.38;;;25.30;54.00;;;;;;5027295;28;20045;-69
2022/08/13 07:34:21;;;;;;;13.88;7.10;;;25.30;54.00;;;;;;5027277;28;20025;-70
2022/08/13 07:36:49;;;;;;;13.13;6.70;;;25.40;53.80;;;;;;5026811;28;20068;-69
2022/08/13 07:39:16;;;;;;;10.68;6.22;;;25.50;53.80;;;;;;5026171;28;20029;-69
2022/08/13 07:41:46;;;;;;;13.60;6.63;;;25.50;53.70;;;;;;5027781;28;20029;-69
2022/08/13 07:44:20;;;;;;;9.55;6.10;;;25.60;53.60;;;;;;5027498;28;20571;-69
2022/08/13 07:46:45;;;;;;;14.27;6.65;;;25.60;53.50;;;;;;5027381;28;20086;-69
2022/08/13 07:49:12;;;;;;;10.75;6.22;;;25.60;53.40;;;;;;5027068;28;20033;-68
2022/08/13 07:51:38;;;;;;;10.93;6.45;;;25.60;53.30;;;;;;5026299;28;20585;-69
2022/08/13 07:54:06;;;;;;;14.10;6.68;;;25.70;53.40;;;;;;5025677;28;20026;-69
2022/08/13 07:56:32;;;;;;;9.40;6.32;;;25.70;53.30;;;;;;5025642;28;20056;-69
2022/08/13 07:59:08;;;;;;;10.55;5.85;;;25.70;53.40;;;;;;5028826;28;20026;-69
2022/08/13 08:01:48;;;;;;;9.52;6.15;;;25.70;53.30;;;;;;5025205;28;20033;-69
2022/08/13 08:04:15;;;;;;;9.27;5.45;;;25.70;53.20;;;;;;5027210;28;20025;-69
2022/08/13 08:06:42;;;;;;;11.45;6.18;;;25.80;53.30;;;;;;5026495;28;20390;-69
2022/08/13 08:09:08;;;;;;;9.20;6.00;;;25.80;53.30;;;;;;5026145;28;20529;-68
2022/08/13 08:14:18;;;;;;;10.30;6.00;;;25.80;53.30;;;;;;5034859;28;20036;-69
2022/08/13 08:16:46;;;;;;;9.85;5.25;;;25.80;53.20;;;;;;5026138;28;20124;-65
2022/08/13 08:19:13;;;;;;;11.98;6.07;;;25.80;53.10;;;;;;5027946;28;20026;-65
2022/08/13 08:21:40;;;;;;;9.98;5.78;;;25.90;53.30;;;;;;5025988;28;20037;-65
2022/08/13 08:24:06;;;;;;;9.15;5.80;;;25.90;53.40;;;;;;5025800;28;20029;-65
2022/08/13 08:26:34;;;;;;;10.05;5.90;;;25.90;53.40;;;;;;5025634;28;20437;-65
2022/08/13 08:29:03;;;;;;;10.50;5.68;;;26.00;53.40;;;;;;5025591;28;20584;-65
2022/08/13 08:31:28;;;;;;;9.82;5.65;;;26.00;53.30;;;;;;5024675;28;20049;-65
2022/08/13 08:33:56;;;;;;;9.07;5.25;;;26.00;53.30;;;;;;5026812;28;20034;-66
2022/08/13 08:36:23;;;;;;;8.60;5.40;;;26.00;53.30;;;;;;5027177;28;20033;-65
2022/08/13 08:44:23;;;;;;;11.43;5.75;;;26.10;53.40;;;;;;5022982;28;20088;-64
2022/08/13 08:46:52;;;;;;;8.85;5.45;;;26.10;53.40;;;;;;5032547;28;20479;-65
2022/08/13 08:49:21;;;;;;;9.85;5.53;;;26.10;53.30;;;;;;5029936;28;20601;-65
2022/08/13 08:51:49;;;;;;;9.65;5.60;;;26.10;53.40;;;;;;5025995;28;20483;-64
2022/08/13 08:54:15;;;;;;;8.85;5.55;;;26.10;53.30;;;;;;5023882;28;20037;-65
2022/08/13 08:56:42;;;;;;;8.57;5.47;;;26.20;53.40;;;;;;5022112;28;20060;-63
2022/08/13 08:59:10;;;;;;;10.82;5.60;;;26.20;53.30;;;;;;5025128;28;20113;-63
2022/08/13 09:01:35;;;;;;;11.65;5.63;;;26.20;53.30;;;;;;5021808;28;20038;-64
2022/08/13 09:04:05;;;;;;;9.93;5.63;;;26.20;53.10;;;;;;5024820;28;20043;-63
2022/08/13 09:06:34;;;;;;;10.95;5.93;;;26.10;52.70;;;;;;5026628;28;20032;-62
2022/08/13 09:09:03;;;;;;;9.90;5.80;;;26.20;53.00;;;;;;5025237;28;20036;-63
2022/08/13 09:11:34;;;;;;;9.82;5.75;;;26.20;53.00;;;;;;5024057;28;20041;-63
2022/08/13 09:14:08;;;;;;;9.82;5.90;;;26.20;52.90;;;;;;5026549;28;20116;-63
2022/08/13 09:16:36;;;;;;;10.50;5.60;;;26.20;52.70;;;;;;5049759;28;20091;-63
2022/08/13 09:19:02;;;;;;;11.15;5.72;;;26.30;52.70;;;;;;5024191;28;20041;-63
2022/08/13 09:21:27;;;;;;;11.55;5.82;;;26.30;52.50;;;;;;5051924;28;20425;-64
2022/08/13 09:23:55;;;;;;;12.45;5.50;;;26.30;52.40;;;;;;5025845;28;20090;-64
2022/08/13 09:26:21;;;;;;;11.88;5.78;;;26.30;53.50;;;;;;5022311;28;20072;-64
2022/08/13 09:28:47;;;;;;;17.65;6.22;;;26.30;52.30;;;;;;5026391;28;20461;-65
2022/08/13 09:31:12;;;;;;;21.13;6.68;;;26.40;52.30;;;;;;5025975;28;20051;-63
2022/08/13 09:33:39;;;;;;;14.32;6.00;;;26.40;52.40;;;;;;5024627;28;20105;-64
2022/08/13 09:36:09;;;;;;;18.15;6.32;;;26.40;52.20;;;;;;5025233;28;20033;-63
2022/08/13 09:38:36;;;;;;;14.02;6.53;;;26.40;52.30;;;;;;5025749;28;20020;-63
2022/08/13 09:41:18;;;;;;;13.73;6.22;;;26.50;52.40;;;;;;5024885;28;20051;-64
2022/08/13 09:43:44;;;;;;;18.73;6.20;;;26.50;52.40;;;;;;5025629;28;20028;-64
2022/08/13 09:46:10;;;;;;;11.90;6.18;;;26.50;53.40;;;;;;5025063;28;20029;-64
2022/08/13 09:48:37;;;;;;;16.73;6.40;;;26.50;52.50;;;;;;5024042;28;20049;-63
2022/08/13 09:51:03;;;;;;;14.02;6.25;;;26.50;52.60;;;;;;5023114;28;20053;-63
2022/08/13 09:53:29;;;;;;;16.60;7.18;;;26.60;52.60;;;;;;5023065;28;20108;-63
2022/08/13 09:55:55;;;;;;;19.83;6.50;;;26.60;52.80;;;;;;5023116;28;20100;-63
2022/08/13 09:58:22;;;;;;;16.02;6.80;;;26.60;52.70;;;;;;5023194;28;20139;-63
2022/08/13 10:00:48;;;;;;;18.20;6.55;;;26.60;52.60;;;;;;5021532;28;20040;-63
2022/08/13 10:03:17;;;;;;;16.98;6.47;;;26.60;52.60;;;;;;5020299;28;20113;-62
2022/08/13 10:05:44;;;;;;;18.17;6.47;;;26.60;52.50;;;;;;5024409;28;20033;-63
2022/08/13 10:08:15;;;;;;;16.50;6.80;;;26.60;52.40;;;;;;5023780;28;20450;-63
2022/08/13 10:10:42;;;;;;;11.98;6.50;;;26.70;52.30;;;;;;5024107;28;20458;-62
2022/08/13 10:13:08;;;;;;;14.32;6.50;;;26.70;51.90;;;;;;5022157;28;20109;-61
2022/08/13 10:15:38;;;;;;;12.55;6.45;;;26.70;51.70;;;;;;5021116;28;20112;-63
2022/08/13 10:18:03;;;;;;;11.68;6.68;;;26.70;51.70;;;;;;5026112;28;20041;-63
2022/08/13 10:20:36;;;;;;;14.10;6.13;;;26.60;51.70;;;;;;5024247;28;20163;-63
2022/08/13 10:23:03;;;;;;;12.57;6.47;;;26.60;51.80;;;;;;5024800;28;20021;-63
2022/08/13 10:25:31;;;;;;;14.52;6.28;;;26.60;51.70;;;;;;5024303;28;20021;-63
2022/08/13 10:27:57;;;;;;;11.50;6.53;;;26.60;51.40;;;;;;5048154;28;20486;-63
2022/08/13 10:30:25;;;;;;;10.55;6.30;;;26.60;51.70;;;;;;5024196;28;20036;-63
2022/08/13 10:32:54;;;;;;;10.40;6.50;;;26.60;51.80;;;;;;5020898;28;20030;-63
2022/08/13 10:35:19;;;;;;;11.20;5.90;;;26.60;51.70;;;;;;5023003;28;20127;-63
2022/08/13 10:37:56;;;;;;;11.65;5.90;;;26.60;51.70;;;;;;5020291;28;20530;-63
2022/08/13 10:40:25;;;;;;;11.20;6.13;;;26.60;51.30;;;;;;5027517;28;20537;-63
2022/08/13 10:42:52;;;;;;;11.15;5.85;;;26.60;51.10;;;;;;5027108;28;20036;-63
2022/08/13 10:45:19;;;;;;;12.20;6.03;;;26.60;51.00;;;;;;5024907;28;20132;-63
2022/08/13 10:47:45;;;;;;;11.68;6.10;;;26.60;51.00;;;;;;5028092;28;20063;-64
2022/08/13 10:50:13;;;;;;;9.77;6.05;;;26.60;51.20;;;;;;5023879;28;20045;-64
2022/08/13 10:52:38;;;;;;;13.93;6.53;;;26.60;51.40;;;;;;5027602;28;20026;-64
2022/08/13 10:55:08;;;;;;;11.32;6.32;;;26.60;51.60;;;;;;5024092;28;20095;-63
2022/08/13 10:57:36;;;;;;;11.35;6.53;;;26.60;51.60;;;;;;5023655;28;20076;-64
2022/08/13 11:00:03;;;;;;;9.95;6.07;;;26.70;51.60;;;;;;5026168;28;20052;-63
2022/08/13 11:02:29;;;;;;;10.55;6.00;;;26.60;51.70;;;;;;5025732;28;20029;-63
2022/08/13 11:04:55;;;;;;;11.82;6.03;;;26.60;51.80;;;;;;5024594;28;20033;-64
2022/08/13 11:07:21;;;;;;;12.43;6.57;;;26.60;51.90;;;;;;5024743;28;20566;-63
2022/08/13 11:09:46;;;;;;;12.02;6.40;;;26.60;51.90;;;;;;5025218;28;20112;-64
2022/08/13 11:12:12;;;;;;;13.80;7.40;;;26.70;51.90;;;;;;5026091;28;20053;-64
2022/08/13 11:14:41;;;;;;;11.48;7.10;;;26.70;52.50;;;;;;5024651;28;20512;-63
2022/08/13 11:17:11;;;;;;;16.38;7.70;;;26.70;52.80;;;;;;5026559;28;20208;-64
2022/08/13 11:19:40;;;;;;;12.40;6.82;;;26.70;52.90;;;;;;5014922;28;20108;-64
2022/08/13 11:22:06;;;;;;;13.68;6.82;;;26.70;53.00;;;;;;5023121;28;20075;-63
2022/08/13 11:24:32;;;;;;;10.60;7.03;;;26.70;53.20;;;;;;5023978;28;21863;-63
2022/08/13 11:26:58;;;;;;;12.85;7.03;;;26.80;53.40;;;;;;5024050;28;20449;-63
2022/08/13 11:29:23;;;;;;;14.25;6.93;;;26.80;53.40;;;;;;5027031;28;20427;-63
2022/08/13 11:31:49;;;;;;;13.15;7.03;;;26.80;53.40;;;;;;5025446;28;20056;-63
2022/08/13 11:34:14;;;;;;;11.88;6.53;;;26.80;53.30;;;;;;5023084;28;20413;-64
2022/08/13 11:36:40;;;;;;;10.80;6.57;;;26.80;53.00;;;;;;5025302;28;20177;-63
2022/08/13 11:39:07;;;;;;;14.48;6.65;;;26.90;52.90;;;;;;5019220;28;20938;-63
2022/08/13 11:41:33;;;;;;;12.98;6.68;;;27.00;52.80;;;;;;5024166;28;20038;-63
2022/08/13 11:43:58;;;;;;;13.45;6.47;;;27.00;52.60;;;;;;5031543;28;20096;-63
2022/08/13 11:46:24;;;;;;;11.02;6.38;;;27.00;52.50;;;;;;5030718;28;20051;-63
2022/08/13 11:48:50;;;;;;;13.88;6.47;;;27.00;52.40;;;;;;5028082;28;20391;-63
2022/08/13 11:51:16;;;;;;;9.75;5.90;;;27.00;52.40;;;;;;5028682;28;20048;-63
2022/08/13 11:53:42;;;;;;;14.63;6.65;;;27.10;52.30;;;;;;5024851;28;20037;-63
2022/08/13 11:56:08;;;;;;;11.20;6.20;;;27.10;52.10;;;;;;5028816;28;20065;-62
2022/08/13 11:58:34;;;;;;;13.15;6.40;;;27.10;52.10;;;;;;5026005;28;20091;-62
2022/08/13 12:01:08;;;;;;;11.15;6.35;;;27.10;51.90;;;;;;5027006;28;20059;-63
2022/08/13 12:03:39;;;;;;;12.63;6.22;;;27.10;51.90;;;;;;5052635;28;20745;-63
2022/08/13 12:06:06;;;;;;;12.30;6.20;;;27.10;51.70;;;;;;5026234;28;20051;-63
2022/08/13 12:08:33;;;;;;;11.80;6.30;;;27.10;51.60;;;;;;5024504;28;21966;-63
2022/08/13 12:10:59;;;;;;;11.85;5.80;;;27.20;51.60;;;;;;5028228;28;20072;-63
2022/08/13 12:13:26;;;;;;;10.75;6.07;;;27.20;51.40;;;;;;5026407;28;20439;-62
2022/08/13 12:15:52;;;;;;;10.85;6.25;;;27.30;51.80;;;;;;5024215;28;20037;-62
2022/08/13 12:18:19;;;;;;;12.30;6.03;;;27.30;51.70;;;;;;5009173;28;20032;-63
2022/08/13 12:20:45;;;;;;;10.80;5.28;;;27.40;51.70;;;;;;5027094;28;20087;-63
2022/08/13 12:23:11;;;;;;;11.02;5.60;;;27.40;51.70;;;;;;5026598;28;20043;-62
2022/08/13 12:25:37;;;;;;;9.88;6.00;;;27.40;51.60;;;;;;5026108;28;20489;-63
2022/08/13 12:28:14;;;;;;;11.70;5.78;;;27.40;51.60;;;;;;5026004;28;20036;-63
2022/08/13 12:30:42;;;;;;;9.88;5.68;;;27.40;51.50;;;;;;5025112;28;20039;-63
2022/08/13 12:33:08;;;;;;;12.32;6.18;;;27.50;51.80;;;;;;5026487;28;20064;-63
2022/08/13 12:35:35;;;;;;;14.68;6.45;;;27.50;53.60;;;;;;5031982;28;20029;-64
2022/08/13 12:38:06;;;;;;;11.10;6.15;;;27.60;52.60;;;;;;5037194;28;20079;-62
2022/08/13 12:40:33;;;;;;;12.10;6.05;;;27.60;52.60;;;;;;5046466;28;20464;-62
2022/08/13 12:42:59;;;;;;;12.85;6.20;;;27.60;52.60;;;;;;5025505;28;20441;-63
2022/08/13 12:45:25;;;;;;;11.00;5.72;;;27.60;52.60;;;;;;5028284;28;20116;-63
2022/08/13 12:47:51;;;;;;;10.05;5.93;;;27.70;52.70;;;;;;5025953;28;20502;-62
2022/08/13 12:50:20;;;;;;;13.45;5.82;;;27.60;52.60;;;;;;5025912;28;20071;-64
2022/08/13 12:52:47;;;;;;;12.10;5.78;;;27.60;52.50;;;;;;5008384;28;20026;-63
2022/08/13 12:55:13;;;;;;;14.60;6.03;;;27.60;52.50;;;;;;5025019;28;20025;-64
2022/08/13 12:57:42;;;;;;;10.60;6.05;;;27.60;52.40;;;;;;5025963;28;20033;-62
2022/08/13 13:00:09;;;;;;;15.95;5.80;;;27.70;52.70;;;;;;5024578;28;20060;-63
2022/08/13 13:02:39;;;;;;;13.40;6.30;;;27.70;52.40;;;;;;5025915;28;20028;-62
2022/08/13 13:05:06;;;;;;;14.77;6.28;;;27.70;52.30;;;;;;5007118;28;20026;-64